Time;durP1;ratioP1;P1;durP2;ratioP2;P2;SDS_P1;SDS_P2;PMS_P1;PMS_P2;Temp;Humidity;BMP_temperature;BMP_pressure;BME280_temperature;BME280_humidity;BME280_pressure;Samples;Min_cycle;Max_cycle;Signal;HPM_P1;HPM_P2
2021/11/25 00:02:18;;;;;;;33.75;19.30;;;;;;;4.33;100.00;93604.19;5058187;28;20389;-88
2021/11/25 00:04:45;;;;;;;31.27;19.70;;;;;;;3.99;100.00;93566.09;5057990;28;20078;-88
2021/11/25 00:07:12;;;;;;;32.75;20.27;;;;;;;4.40;100.00;93626.28;5033968;28;20049;-88
2021/11/25 00:09:39;;;;;;;31.98;20.17;;;;;;;3.96;100.00;93574.06;5058240;28;20055;-88
2021/11/25 00:12:07;;;;;;;30.77;19.63;;;;;;;3.86;100.00;93558.16;5057325;28;20058;-89
2021/11/25 00:14:36;;;;;;;30.48;18.50;;;;;;;4.32;100.00;93626.31;5055934;28;20067;-88
2021/11/25 00:17:04;;;;;;;30.73;19.77;;;;;;;4.37;100.00;93628.38;5051593;28;20045;-87
2021/11/25 00:19:57;;;;;;;35.72;21.42;;;;;;;3.47;100.00;93501.97;5057073;28;20053;-89
2021/11/25 00:22:24;;;;;;;29.40;18.63;;;;;;;4.24;100.00;93639.03;5048503;28;20568;-88
2021/11/25 00:24:51;;;;;;;30.00;18.52;;;;;;;4.20;100.00;93627.56;5056968;28;20067;-89
2021/11/25 00:27:18;;;;;;;27.90;18.23;;;;;;;3.63;100.00;93552.91;5054228;28;20049;-88
2021/11/25 00:29:47;;;;;;;25.88;18.77;;;;;;;4.17;100.00;93623.59;5055572;28;20144;-88
2021/11/25 00:32:14;;;;;;;27.38;18.88;;;;;;;4.23;100.00;93619.63;5054538;28;20061;-88
2021/11/25 00:34:41;;;;;;;27.27;18.60;;;;;;;4.16;100.00;93611.84;5057247;28;20150;-88
2021/11/25 00:37:08;;;;;;;24.55;17.13;;;;;;;4.34;100.00;93631.22;5056711;28;20049;-88
2021/11/25 00:39:35;;;;;;;26.02;17.38;;;;;;;4.28;100.00;93623.31;5057446;28;20182;-87
2021/11/25 00:42:02;;;;;;;23.20;16.42;;;;;;;3.59;100.00;93522.78;5056696;28;20147;-88
2021/11/25 00:44:29;;;;;;;28.38;18.27;;;;;;;4.30;100.00;93620.56;5056539;28;20040;-89
2021/11/25 00:46:57;;;;;;;24.95;17.48;;;;;;;4.14;100.00;93596.78;5056791;28;20052;-88
2021/11/25 00:49:24;;;;;;;26.50;18.38;;;;;;;4.38;100.00;93624.88;5054160;28;20041;-88
2021/11/25 00:51:51;;;;;;;26.48;18.30;;;;;;;4.42;100.00;93623.59;5055289;28;20048;-89
2021/11/25 00:54:18;;;;;;;27.60;17.38;;;;;;;3.98;100.00;93554.34;5054513;28;20045;-89
2021/11/25 00:56:45;;;;;;;30.20;18.48;;;;;;;4.50;100.00;93617.69;5055583;28;20432;-87
2021/11/25 00:59:13;;;;;;;27.83;18.70;;;;;;;4.58;100.00;93611.81;5055294;28;20061;-88
2021/11/25 01:01:40;;;;;;;27.42;18.55;;;;;;;4.64;100.00;93614.47;5055161;28;20897;-88
2021/11/25 01:04:08;;;;;;;28.48;18.60;;;;;;;4.43;100.00;93561.59;5056195;28;20052;-87
2021/11/25 01:06:37;;;;;;;26.05;18.42;;;;;;;4.71;100.00;93599.34;5056744;28;20432;-87
2021/11/25 01:09:13;;;;;;;23.25;15.68;;;;;;;3.73;100.00;93473.06;5058682;28;20049;-87
2021/11/25 01:11:40;;;;;;;38.80;21.05;;;;;;;4.49;100.00;93611.03;5058006;28;20484;-88
2021/11/25 01:14:07;;;;;;;29.77;18.67;;;;;;;4.44;100.00;93613.25;5057016;28;20125;-87
2021/11/25 01:16:33;;;;;;;28.83;18.13;;;;;;;4.43;100.00;93598.97;5057808;28;20428;-88
2021/11/25 01:19:00;;;;;;;31.00;21.27;;;;;;;3.75;100.00;93485.59;5067291;28;20075;-88
2021/11/25 01:21:29;;;;;;;36.72;22.85;;;;;;;4.05;100.00;93521.47;5064936;28;20051;-88
2021/11/25 01:24:18;;;;;;;36.08;20.42;;;;;;;4.43;100.00;93576.84;5056700;28;20045;-88
2021/11/25 01:26:44;;;;;;;35.95;21.45;;;;;;;4.40;100.00;93557.63;5058267;28;20052;-88
2021/11/25 01:29:12;;;;;;;31.17;20.02;;;;;;;4.44;100.00;93557.31;5056786;28;20056;-88
2021/11/25 01:31:39;;;;;;;31.80;19.52;;;;;;;4.71;100.00;93583.31;5056327;28;20080;-88
2021/11/25 01:34:06;;;;;;;32.88;20.17;;;;;;;4.80;100.00;93600.94;5056772;28;20052;-88
2021/11/25 01:36:35;;;;;;;31.13;19.60;;;;;;;4.45;100.00;93543.63;5055811;28;20107;-88
2021/11/25 01:39:02;;;;;;;32.45;19.65;;;;;;;4.70;100.00;93568.97;5055737;28;20048;-89
2021/11/25 01:41:29;;;;;;;35.83;20.92;;;;;;;4.91;100.00;93607.41;5055834;28;20124;-87
2021/11/25 01:43:56;;;;;;;31.65;19.15;;;;;;;4.58;100.00;93545.66;5055451;28;20048;-88
2021/11/25 01:46:24;;;;;;;32.70;20.50;;;;;;;4.76;100.00;93569.13;5055879;28;20496;-88
2021/11/25 01:48:51;;;;;;;34.17;20.73;;;;;;;4.39;100.00;93512.00;5056237;28;20085;-89
2021/11/25 01:51:20;;;;;;;31.90;19.27;;;;;;;4.93;100.00;93594.50;5055656;28;20055;-88
2021/11/25 01:53:49;;;;;;;33.30;20.15;;;;;;;4.79;100.00;93557.81;5055323;28;20522;-89
2021/11/25 01:56:17;;;;;;;32.00;20.25;;;;;;;4.90;100.00;93566.84;5053595;28;20465;-89
2021/11/25 01:58:45;;;;;;;37.15;21.45;;;;;;;4.89;100.00;93583.88;5055004;28;20045;-88
2021/11/25 02:01:15;;;;;;;33.15;20.88;;;;;;;4.87;100.00;93582.44;5055210;28;20527;-88
2021/11/25 02:03:42;;;;;;;35.58;21.67;;;;;;;4.69;100.00;93555.47;5054084;28;20079;-89
2021/11/25 02:06:10;;;;;;;40.05;22.15;;;;;;;4.63;100.00;93568.88;5055979;28;20568;-90
2021/11/25 02:08:37;;;;;;;37.05;21.98;;;;;;;4.48;100.00;93556.81;5056337;28;20044;-87
2021/11/25 02:11:07;;;;;;;36.00;21.73;;;;;;;4.55;100.00;93569.69;5055134;28;20044;-89
2021/11/25 02:13:34;;;;;;;32.75;21.45;;;;;;;4.39;100.00;93555.22;5054612;28;20512;-88
2021/11/25 02:16:02;;;;;;;39.30;23.20;;;;;;;3.94;100.00;93512.41;5055342;28;20139;-88
2021/11/25 02:18:29;;;;;;;39.95;23.92;;;;;;;4.39;100.00;93568.75;5056371;28;20067;-88
2021/11/25 02:21:00;;;;;;;36.13;22.23;;;;;;;4.47;100.00;93564.59;5055876;28;20053;-88
2021/11/25 02:23:27;;;;;;;34.45;22.10;;;;;;;4.55;100.00;93562.81;5051801;28;20041;-88
2021/11/25 02:25:56;;;;;;;35.17;22.80;;;;;;;4.55;100.00;93564.59;5053625;28;20519;-87
2021/11/25 02:28:27;;;;;;;34.38;22.83;;;;;;;3.78;100.00;93434.47;5055018;28;20067;-89
2021/11/25 02:30:55;;;;;;;48.85;24.55;;;;;;;4.25;100.00;93498.19;5052445;28;20122;-88
2021/11/25 02:33:22;;;;;;;36.42;23.30;;;;;;;4.79;100.00;93566.25;5054925;28;20045;-89
2021/11/25 02:35:50;;;;;;;37.03;23.38;;;;;;;4.78;100.00;93556.25;5064018;28;20044;-90
2021/11/25 02:38:18;;;;;;;34.92;22.70;;;;;;;4.44;100.00;93488.63;5056543;28;20064;-88
2021/11/25 02:40:47;;;;;;;33.47;20.58;;;;;;;4.77;100.00;93532.53;5051296;28;20421;-88
2021/11/25 02:43:16;;;;;;;34.75;20.70;;;;;;;4.99;100.00;93560.75;5049273;28;20040;-88
2021/11/25 02:45:49;;;;;;;34.10;20.35;;;;;;;4.56;100.00;93497.47;5048930;28;20496;-88
2021/11/25 02:48:20;;;;;;;35.75;21.45;;;;;;;5.07;100.00;93565.03;5049134;28;20059;-89
2021/11/25 02:50:48;;;;;;;33.15;20.13;;;;;;;5.07;100.00;93567.56;5048976;28;20060;-88
2021/11/25 02:53:21;;;;;;;36.22;21.35;;;;;;;4.66;100.00;93489.63;5049102;28;20522;-88
2021/11/25 02:55:48;;;;;;;35.33;21.42;;;;;;;5.12;100.00;93552.59;5049059;28;20041;-89
2021/11/25 02:58:18;;;;;;;35.72;22.77;;;;;;;4.65;100.00;93495.69;5049147;28;20065;-89
2021/11/25 03:00:47;;;;;;;36.35;22.08;;;;;;;4.34;100.00;93446.38;5049600;28;20041;-89
2021/11/25 03:03:17;;;;;;;36.38;21.52;;;;;;;4.26;100.00;93443.88;5049786;28;20658;-89
2021/11/25 03:05:46;;;;;;;34.03;20.38;;;;;;;4.65;100.00;93498.22;5049191;28;20385;-90
2021/11/25 03:08:15;;;;;;;28.60;18.02;;;;;;;4.36;100.00;93456.38;5049225;28;20132;-89
2021/11/25 03:10:45;;;;;;;29.48;19.15;;;;;;;4.69;100.00;93494.41;5049566;28;20048;-91
2021/11/25 03:13:14;;;;;;;26.83;17.77;;;;;;;4.83;100.00;93518.38;5048988;28;20389;-88
2021/11/25 03:15:45;;;;;;;28.73;18.08;;;;;;;5.05;100.00;93549.13;5050786;28;20127;-89
2021/11/25 03:18:13;;;;;;;28.42;17.88;;;;;;;4.76;100.00;93491.97;5052683;28;20103;-88
2021/11/25 03:20:46;;;;;;;28.75;17.55;;;;;;;4.65;100.00;93477.88;5053051;28;20056;-89
2021/11/25 03:23:20;;;;;;;25.35;17.02;;;;;;;4.50;100.00;93459.97;5052701;28;20095;-90
2021/11/25 03:28:36;;;;;;;24.58;16.70;;;;;;;4.07;100.00;93391.66;5047244;28;20433;-89
2021/11/25 03:31:09;;;;;;;26.48;18.50;;;;;;;4.28;100.00;93432.56;5053398;28;20056;-91
2021/11/25 03:34:02;;;;;;;27.13;17.20;;;;;;;4.57;100.00;93470.28;5053764;28;20048;-91
2021/11/25 03:36:29;;;;;;;28.15;17.55;;;;;;;4.54;100.00;93463.78;5053106;28;20041;-91
2021/11/25 03:38:58;;;;;;;27.15;17.67;;;;;;;4.64;100.00;93468.66;5053435;28;20052;-90
2021/11/25 03:41:27;;;;;;;27.85;17.63;;;;;;;4.41;100.00;93452.38;5053021;28;20041;-90
2021/11/25 03:43:54;;;;;;;26.10;16.08;;;;;;;4.00;100.00;93389.78;5052850;28;20059;-89
2021/11/25 03:46:21;;;;;;;25.30;16.67;;;;;;;4.53;100.00;93482.53;5052117;28;20057;-89
2021/11/25 03:48:48;;;;;;;24.35;16.33;;;;;;;4.45;100.00;93467.31;5052352;28;20409;-89
2021/11/25 03:51:15;;;;;;;23.17;16.65;;;;;;;4.63;100.00;93497.63;5052863;28;20080;-89
2021/11/25 03:53:45;;;;;;;24.25;16.80;;;;;;;4.78;100.00;93526.47;5053014;28;20474;-87
2021/11/25 03:56:13;;;;;;;26.88;17.38;;;;;;;4.75;100.00;93523.47;5051746;28;20045;-89
2021/11/25 03:58:41;;;;;;;25.52;18.02;;;;;;;4.25;100.00;93457.53;5051718;28;20140;-90
2021/11/25 04:01:23;;;;;;;22.63;17.00;;;;;;;4.21;100.00;93457.06;5052323;28;20092;-90
2021/11/25 04:03:50;;;;;;;44.30;25.40;;;;;;;4.10;100.00;93429.44;5052266;28;20579;-89
2021/11/25 04:06:21;;;;;;;26.70;17.92;;;;;;;3.71;100.00;93383.50;5052592;28;20051;-89
2021/11/25 04:08:48;;;;;;;33.58;20.35;;;;;;;4.21;100.00;93457.06;5052857;28;20048;-89
2021/11/25 04:11:17;;;;;;;26.70;19.17;;;;;;;4.44;100.00;93496.25;5052773;28;20407;-87
2021/11/25 04:13:45;;;;;;;27.83;19.30;;;;;;;4.22;100.00;93483.28;5051695;28;20048;-89
2021/11/25 04:16:12;;;;;;;36.33;23.60;;;;;;;3.90;100.00;93442.53;5051688;28;20575;-87
2021/11/25 04:18:39;;;;;;;39.58;23.90;;;;;;;3.83;100.00;93434.75;5052091;28;20059;-86
2021/11/25 04:21:16;;;;;;;35.28;23.05;;;;;;;3.45;100.00;93384.50;5051583;28;20136;-89
2021/11/25 04:23:43;;;;;;;34.83;22.80;;;;;;;3.58;100.00;93424.66;5052234;28;20065;-88
2021/11/25 04:26:10;;;;;;;35.53;22.20;;;;;;;3.82;100.00;93460.34;5051740;28;20060;-88
2021/11/25 04:28:37;;;;;;;32.33;21.25;;;;;;;3.50;100.00;93432.28;5051798;28;20081;-88
2021/11/25 04:36:35;;;;;;;37.50;22.27;;;;;;;3.63;100.00;93508.00;5051330;28;20079;-90
2021/11/25 04:39:02;;;;;;;33.13;21.98;;;;;;;3.08;100.00;93431.50;5051716;28;20049;-90
2021/11/25 04:41:29;;;;;;;32.53;20.83;;;;;;;3.63;100.00;93505.47;5051401;28;20049;-89
2021/11/25 04:43:56;;;;;;;31.13;19.92;;;;;;;3.66;100.00;93502.59;5051758;28;20048;-88
2021/11/25 04:46:24;;;;;;;27.45;19.15;;;;;;;3.70;100.00;93508.16;5051393;28;20055;-88
2021/11/25 04:48:51;;;;;;;31.27;19.55;;;;;;;3.69;100.00;93498.94;5051259;28;20056;-88
2021/11/25 04:51:18;;;;;;;29.60;19.13;;;;;;;3.79;100.00;93506.41;5052124;28;20048;-88
2021/11/25 04:53:45;;;;;;;31.35;20.45;;;;;;;3.59;100.00;93469.44;5051869;28;20049;-89
2021/11/25 04:59:34;;;;;;;32.92;20.67;;;;;;;3.65;100.00;93497.69;5088391;22;20097;-84
2021/11/25 05:02:02;;;;;;;38.25;22.10;;;;;;;3.65;100.00;93501.00;5072663;28;20063;-83
2021/11/25 05:04:29;;;;;;;33.63;21.45;;;;;;;3.58;100.00;93498.31;5072578;28;20040;-84
2021/11/25 05:06:56;;;;;;;35.45;21.60;;;;;;;3.48;100.00;93502.75;5053501;28;20084;-83
2021/11/25 05:09:23;;;;;;;32.47;19.77;;;;;;;3.48;100.00;93502.75;5052790;28;20059;-84
2021/11/25 05:11:49;;;;;;;33.63;20.77;;;;;;;3.46;100.00;93505.47;5052861;28;20053;-84
2021/11/25 05:14:16;;;;;;;31.20;20.85;;;;;;;3.39;100.00;93499.44;5052416;28;20049;-84
2021/11/25 05:16:44;;;;;;;32.33;20.85;;;;;;;3.30;100.00;93495.28;5052692;28;20048;-83
2021/11/25 05:19:17;;;;;;;36.55;22.92;;;;;;;3.34;100.00;93491.50;5052352;28;20136;-84
2021/11/25 05:21:44;;;;;;;34.38;22.30;;;;;;;3.26;100.00;93499.88;5052402;28;20045;-84
2021/11/25 05:24:11;;;;;;;32.58;21.52;;;;;;;3.29;100.00;93502.09;5052261;28;20099;-84
2021/11/25 05:26:38;;;;;;;31.48;21.50;;;;;;;3.11;100.00;93501.44;5052524;28;20053;-84
2021/11/25 05:29:05;;;;;;;37.28;24.48;;;;;;;3.09;100.00;93501.59;5052465;28;20048;-84
2021/11/25 05:31:32;;;;;;;38.30;25.92;;;;;;;3.01;100.00;93488.91;5031068;28;20056;-83
2021/11/25 05:33:59;;;;;;;44.22;27.70;;;;;;;3.00;100.00;93490.66;5052149;28;20435;-83
2021/11/25 05:36:27;;;;;;;61.78;33.58;;;;;;;3.01;100.00;93492.22;5052337;28;20045;-84
2021/11/25 05:38:54;;;;;;;42.95;27.10;;;;;;;2.94;100.00;93511.56;5051227;28;20451;-83
2021/11/25 05:41:21;;;;;;;56.92;30.65;;;;;;;2.93;100.00;93504.91;5051734;28;20049;-84
2021/11/25 05:43:48;;;;;;;58.25;32.05;;;;;;;2.93;100.00;93510.75;5051904;28;20049;-84
2021/11/25 05:46:15;;;;;;;48.22;29.88;;;;;;;2.88;100.00;93504.59;5052013;28;20053;-84
2021/11/25 05:48:42;;;;;;;157.68;73.72;;;;;;;2.85;100.00;93503.16;5051754;28;20045;-84
2021/11/25 05:51:10;;;;;;;66.10;37.78;;;;;;;2.95;100.00;93503.00;5051762;28;20055;-83
2021/11/25 05:53:38;;;;;;;53.75;30.45;;;;;;;3.00;100.00;93507.63;5051969;28;20059;-84
2021/11/25 05:56:05;;;;;;;55.75;30.23;;;;;;;3.04;100.00;93507.16;5051644;28;20051;-84
2021/11/25 05:58:32;;;;;;;43.67;27.80;;;;;;;3.02;100.00;93503.19;5051822;28;20048;-83
2021/11/25 06:00:59;;;;;;;48.60;32.03;;;;;;;3.01;100.00;93515.06;5068742;28;20052;-84
2021/11/25 06:03:26;;;;;;;34.75;24.05;;;;;;;3.01;100.00;93494.75;5071551;28;20131;-84
2021/11/25 06:05:53;;;;;;;36.70;23.08;;;;;;;3.11;100.00;93507.34;5071348;28;20415;-84
2021/11/25 06:08:20;;;;;;;34.50;22.10;;;;;;;3.28;100.00;93513.22;5071251;28;20102;-83
2021/11/25 06:10:48;;;;;;;30.38;20.60;;;;;;;3.19;100.00;93507.34;5071524;28;20161;-83
2021/11/25 06:13:15;;;;;;;33.33;21.85;;;;;;;3.26;100.00;93530.34;5071364;28;20102;-83
2021/11/25 06:15:42;;;;;;;33.17;20.83;;;;;;;3.16;100.00;93520.31;5071351;28;20059;-83
2021/11/25 06:18:09;;;;;;;38.92;25.30;;;;;;;3.17;100.00;93516.88;5071245;28;20059;-83
2021/11/25 06:20:36;;;;;;;44.70;24.98;;;;;;;3.28;100.00;93530.22;5071097;28;20051;-84
2021/11/25 06:23:04;;;;;;;43.03;25.83;;;;;;;3.32;100.00;93523.84;5071093;28;20067;-84
2021/11/25 06:25:31;;;;;;;43.83;27.85;;;;;;;3.26;100.00;93527.81;5071488;28;20052;-84
2021/11/25 06:27:59;;;;;;;41.83;25.50;;;;;;;3.28;100.00;93520.06;5071229;28;20088;-84
2021/11/25 06:30:26;;;;;;;36.67;24.10;;;;;;;3.19;100.00;93497.19;5071128;28;20044;-84
2021/11/25 06:32:53;;;;;;;37.92;25.27;;;;;;;3.46;100.00;93520.69;5071026;28;20487;-83
2021/11/25 06:35:22;;;;;;;45.10;29.27;;;;;;;3.65;100.00;93530.72;5070884;28;20064;-83
2021/11/25 06:37:52;;;;;;;42.65;24.88;;;;;;;3.58;100.00;93528.81;5071012;28;20044;-83
2021/11/25 06:40:25;;;;;;;43.90;27.13;;;;;;;3.53;100.00;93525.13;5070935;28;20054;-84
2021/11/25 06:42:52;;;;;;;49.42;29.80;;;;;;;3.62;100.00;93526.75;5070958;28;20407;-84
2021/11/25 06:45:20;;;;;;;40.10;25.25;;;;;;;3.61;100.00;93514.97;5070753;28;20048;-84
2021/11/25 06:47:48;;;;;;;41.53;26.23;;;;;;;3.79;100.00;93524.19;5070773;28;20060;-84
2021/11/25 06:50:19;;;;;;;46.15;31.45;;;;;;;3.87;100.00;93524.97;5070516;28;20056;-84
2021/11/25 06:52:46;;;;;;;45.55;28.80;;;;;;;3.80;100.00;93492.75;5070932;28;20052;-84
2021/11/25 06:55:14;;;;;;;38.55;24.63;;;;;;;4.13;100.00;93523.19;5070902;28;20048;-84
2021/11/25 06:57:41;;;;;;;36.85;23.02;;;;;;;4.16;100.00;93527.94;5070688;28;20055;-84
2021/11/25 07:00:11;;;;;;;39.00;24.02;;;;;;;4.22;100.00;93511.25;5070881;28;20063;-84
2021/11/25 07:02:39;;;;;;;51.63;28.20;;;;;;;4.40;100.00;93528.88;5070695;28;20044;-84
2021/11/25 07:05:08;;;;;;;33.92;21.58;;;;;;;4.36;100.00;93514.88;5070659;28;20050;-84
2021/11/25 07:07:35;;;;;;;39.63;24.85;;;;;;;4.26;100.00;93512.53;5070534;28;20048;-84
2021/11/25 07:10:03;;;;;;;37.63;23.15;;;;;;;4.44;100.00;93519.16;5070578;28;20045;-84
2021/11/25 07:12:29;;;;;;;43.38;23.98;;;;;;;4.39;100.00;93509.44;5070642;28;20055;-84
2021/11/25 07:14:56;;;;;;;40.63;24.50;;;;;;;4.40;100.00;93521.22;5070592;28;20053;-84
2021/11/25 07:17:23;;;;;;;38.45;24.63;;;;;;;4.64;100.00;93514.47;5070518;28;20060;-84
2021/11/25 07:19:51;;;;;;;37.38;23.67;;;;;;;4.80;100.00;93518.69;5070442;28;20084;-84
2021/11/25 07:22:18;;;;;;;39.03;23.38;;;;;;;4.91;100.00;93520.06;5070721;28;20482;-85
2021/11/25 07:24:46;;;;;;;44.55;22.88;;;;;;;5.03;100.00;93520.47;5070620;28;20056;-86
2021/11/25 07:27:13;;;;;;;45.35;25.63;;;;;;;5.10;100.00;93521.41;5070417;28;20518;-83
2021/11/25 07:29:40;;;;;;;47.22;27.20;;;;;;;5.07;100.00;93506.47;5070430;28;20065;-83
2021/11/25 07:32:07;;;;;;;46.70;27.42;;;;;;;5.14;100.00;93516.78;5070786;28;20114;-85
2021/11/25 07:34:34;;;;;;;41.55;26.27;;;;;;;4.99;100.00;93488.69;5070834;28;20075;-85
2021/11/25 07:37:03;;;;;;;45.42;29.10;;;;;;;5.16;100.00;93512.28;5070370;28;20066;-85
2021/11/25 07:39:30;;;;;;;48.15;29.02;;;;;;;5.01;100.00;93477.38;5070305;28;20498;-85
2021/11/25 07:41:57;;;;;;;49.13;29.42;;;;;;;5.22;100.00;93503.97;5070284;28;20049;-85
2021/11/25 07:44:24;;;;;;;50.47;28.92;;;;;;;5.22;100.00;93512.41;5070156;28;20410;-85
2021/11/25 07:46:51;;;;;;;54.30;30.73;;;;;;;5.16;100.00;93497.81;5070101;28;20487;-85
2021/11/25 07:49:17;;;;;;;60.20;29.67;;;;;;;5.10;100.00;93506.13;5070418;28;20044;-85
2021/11/25 07:51:44;;;;;;;64.18;31.35;;;;;;;5.07;100.00;93484.34;5070234;28;20072;-85
2021/11/25 07:54:13;;;;;;;53.85;30.02;;;;;;;5.33;100.00;93492.63;5070259;28;20513;-85
2021/11/25 07:56:41;;;;;;;70.05;30.70;;;;;;;5.47;100.00;93499.50;5070019;28;20052;-86
2021/11/25 07:59:08;;;;;;;69.55;31.02;;;;;;;5.47;100.00;93488.53;5070253;28;20056;-85
2021/11/25 08:01:36;;;;;;;70.85;31.58;;;;;;;5.32;100.00;93493.59;5072205;28;20391;-84
2021/11/25 08:04:03;;;;;;;63.88;30.98;;;;;;;5.51;100.00;93488.97;5073773;28;20052;-85
2021/11/25 08:06:30;;;;;;;63.90;30.75;;;;;;;5.58;100.00;93489.88;5073722;28;20040;-85
2021/11/25 08:08:56;;;;;;;57.92;29.50;;;;;;;5.39;100.00;93483.50;5073561;28;20044;-86
2021/11/25 08:11:25;;;;;;;59.63;28.05;;;;;;;5.44;100.00;93483.78;5073527;28;20453;-85
2021/11/25 08:13:52;;;;;;;71.10;29.13;;;;;;;5.43;100.00;93474.53;5073787;28;20094;-85
2021/11/25 08:16:19;;;;;;;50.33;26.38;;;;;;;5.26;100.00;93476.41;5073606;28;20045;-85
2021/11/25 08:18:46;;;;;;;48.47;25.65;;;;;;;5.47;100.00;93479.13;5073712;28;20044;-85
2021/11/25 08:21:14;;;;;;;49.17;27.00;;;;;;;5.59;100.00;93466.78;5073486;28;20053;-85
2021/11/25 08:23:41;;;;;;;54.63;28.17;;;;;;;5.66;100.00;93463.53;5073403;28;20048;-85
2021/11/25 08:26:08;;;;;;;55.60;31.10;;;;;;;5.53;100.00;93470.00;5073334;28;20052;-85
2021/11/25 08:28:37;;;;;;;52.00;28.73;;;;;;;5.56;100.00;93466.34;5073260;28;20049;-85
2021/11/25 08:31:04;;;;;;;52.72;28.20;;;;;;;5.55;100.00;93467.31;5073412;28;20532;-85
2021/11/25 08:33:31;;;;;;;53.08;27.95;;;;;;;5.65;100.00;93454.31;5073374;28;20049;-84
2021/11/25 08:35:58;;;;;;;37.83;21.08;;;;;;;5.64;100.00;93455.28;5074093;28;20048;-84
2021/11/25 08:38:28;;;;;;;56.38;27.70;;;;;;;5.85;100.00;93454.59;5073208;28;20065;-85
2021/11/25 08:40:55;;;;;;;51.97;27.48;;;;;;;6.03;100.00;93454.31;5074098;28;20109;-84
2021/11/25 08:43:22;;;;;;;51.30;27.83;;;;;;;6.20;100.00;93451.56;5074651;28;20052;-84
2021/11/25 08:45:51;;;;;;;54.58;28.67;;;;;;;6.33;100.00;93440.72;5075764;28;20045;-84
2021/11/25 08:48:18;;;;;;;32.85;19.40;;;;;;;6.47;100.00;93439.94;5077496;28;20052;-85
2021/11/25 08:50:52;;;;;;;57.15;27.13;;;;;;;6.63;100.00;93451.69;5075507;28;20490;-85
2021/11/25 08:53:21;;;;;;;57.65;26.17;;;;;;;6.63;100.00;93449.13;5075571;28;20040;-85
2021/11/25 08:55:48;;;;;;;54.58;24.17;;;;;;;6.73;100.00;93445.53;5072905;28;20049;-83
2021/11/25 08:58:15;;;;;;;52.42;25.20;;;;;;;6.54;100.00;93432.38;5072803;28;20483;-82
2021/11/25 09:00:42;;;;;;;58.58;24.48;;;;;;;6.74;100.00;93444.53;5072598;28;20519;-82
2021/11/25 09:03:10;;;;;;;53.53;25.17;;;;;;;6.64;100.00;93437.97;5072684;28;20055;-83
2021/11/25 09:05:37;;;;;;;44.83;23.92;;;;;;;6.39;100.00;93443.38;5072534;28;20147;-82
2021/11/25 09:08:05;;;;;;;54.40;26.67;;;;;;;6.48;100.00;93443.28;5072776;28;20415;-83
2021/11/25 09:10:32;;;;;;;48.33;24.58;;;;;;;6.75;100.00;93433.38;5072894;28;20487;-83
2021/11/25 09:13:01;;;;;;;54.40;26.92;;;;;;;6.71;100.00;93434.72;5072429;28;20045;-83
2021/11/25 09:15:28;;;;;;;58.92;26.92;;;;;;;6.90;100.00;93430.78;5070341;28;20139;-83
2021/11/25 09:17:55;;;;;;;72.20;28.55;;;;;;;7.01;100.00;93434.59;5072451;28;20048;-83
2021/11/25 09:20:24;;;;;;;74.13;29.20;;;;;;;6.95;100.00;93424.16;5072593;28;20048;-83
2021/11/25 09:22:51;;;;;;;59.88;26.08;;;;;;;6.76;100.00;93425.53;5072291;28;20060;-83
2021/11/25 09:25:19;;;;;;;69.05;29.33;;;;;;;6.82;100.00;93426.56;5072545;28;20074;-84
2021/11/25 09:27:46;;;;;;;67.40;28.60;;;;;;;7.08;100.00;93420.94;5072113;28;20087;-83
2021/11/25 09:30:13;;;;;;;65.53;27.13;;;;;;;7.26;100.00;93421.50;5072201;28;20399;-84
2021/11/25 09:32:40;;;;;;;58.97;28.00;;;;;;;7.45;100.00;93412.41;5071996;28;20098;-83
2021/11/25 09:35:08;;;;;;;60.53;26.92;;;;;;;7.60;100.00;93419.97;5072136;28;20566;-84
2021/11/25 09:37:42;;;;;;;50.67;25.98;;;;;;;7.32;100.00;93383.19;5072457;28;20047;-84
2021/11/25 09:40:20;;;;;;;59.53;26.15;;;;;;;7.74;100.00;93413.19;5072039;28;20125;-84
2021/11/25 09:42:47;;;;;;;43.88;23.90;;;;;;;7.59;100.00;93415.84;5072083;28;20414;-84
2021/11/25 09:45:16;;;;;;;52.00;26.95;;;;;;;7.49;100.00;93416.94;5071743;28;20052;-84
2021/11/25 09:47:43;;;;;;;41.65;23.23;;;;;;;7.13;100.00;93381.28;5071734;28;20131;-84
2021/11/25 09:50:10;;;;;;;53.58;23.35;;;;;;;7.51;100.00;93415.97;5071902;28;20048;-84
2021/11/25 09:52:38;;;;;;;40.92;23.25;;;;;;;7.53;100.00;93411.44;5071801;28;20071;-84
2021/11/25 09:55:06;;;;;;;43.10;25.08;;;;;;;7.65;100.00;93412.53;5071655;28;20058;-84
2021/11/25 09:57:33;;;;;;;42.60;25.27;;;;;;;7.73;100.00;93402.16;5071487;28;20051;-84
2021/11/25 09:59:59;;;;;;;38.47;23.52;;;;;;;7.84;100.00;93410.28;5071679;28;20048;-84
2021/11/25 10:02:26;;;;;;;37.30;20.65;;;;;;;7.79;100.00;93413.44;5071654;28;20048;-84
2021/11/25 10:04:53;;;;;;;35.28;20.98;;;;;;;7.86;100.00;93409.13;5071549;28;20059;-85
2021/11/25 10:07:30;;;;;;;35.92;22.30;;;;;;;7.88;100.00;93401.28;5071321;28;20143;-85
2021/11/25 10:09:58;;;;;;;35.47;19.98;;;;;;;7.75;100.00;93415.56;5071364;28;20048;-85
2021/11/25 10:12:37;;;;;;;36.90;21.17;;;;;;;7.67;100.00;93408.03;5071331;28;20408;-84
2021/11/25 10:15:23;;;;;;;46.85;25.65;;;;;;;7.84;100.00;93398.31;5071006;28;20406;-85
2021/11/25 10:17:52;;;;;;;45.97;27.35;;;;;;;7.95;100.00;93396.19;5071265;28;20045;-84
2021/11/25 10:20:20;;;;;;;42.88;25.20;;;;;;;7.94;100.00;93390.28;5071088;28;20047;-84
2021/11/25 10:23:16;;;;;;;45.22;24.80;;;;;;;7.75;100.00;93392.56;5071473;28;20457;-84
2021/11/25 10:25:47;;;;;;;84.63;42.85;;;;;;;7.81;100.00;93383.31;5069685;28;20128;-84
2021/11/25 10:28:25;;;;;;;37.55;21.23;;;;;;;7.92;100.00;93379.44;5071022;28;20044;-84
2021/11/25 10:30:55;;;;;;;29.60;17.33;;;;;;;8.00;100.00;93383.63;5070922;28;20044;-84
2021/11/25 10:33:25;;;;;;;21.05;13.13;;;;;;;8.11;100.00;93385.63;5070962;28;20044;-84
2021/11/25 10:36:29;;;;;;;18.80;11.60;;;;;;;8.16;100.00;93370.50;5071139;28;20091;-84
2021/11/25 10:39:01;;;;;;;16.10;10.05;;;;;;;8.27;100.00;93366.63;5071015;28;20060;-84
2021/11/25 10:41:32;;;;;;;19.90;10.80;;;;;;;8.01;100.00;93311.03;5071075;28;20049;-85
2021/11/25 10:44:13;;;;;;;15.77;10.10;;;;;;;8.50;100.00;93362.97;5070698;28;20084;-84
2021/11/25 10:46:43;;;;;;;24.40;11.00;;;;;;;8.61;100.00;93358.28;5070867;28;20495;-84
2021/11/25 10:49:11;;;;;;;13.48;9.13;;;;;;;8.66;100.00;93353.38;5064267;28;20048;-84
2021/11/25 10:51:40;;;;;;;15.85;10.05;;;;;;;8.71;100.00;93360.47;5057531;28;20048;-84
2021/11/25 10:54:09;;;;;;;21.73;14.15;;;;;;;8.76;100.00;93353.81;5060682;28;20048;-84
2021/11/25 10:56:42;;;;;;;16.80;10.07;;;;;;;8.76;100.00;93348.69;5060894;28;20078;-84
2021/11/25 10:59:11;;;;;;;22.77;13.93;;;;;;;8.77;99.83;93352.00;5059668;28;20056;-84
2021/11/25 11:01:40;;;;;;;16.35;11.32;;;;;;;8.55;100.00;93309.44;5059755;28;20051;-84
2021/11/25 11:04:08;;;;;;;17.90;11.52;;;;;;;8.83;100.00;93338.44;5059600;28;20044;-86
2021/11/25 11:06:37;;;;;;;15.82;10.40;;;;;;;8.90;100.00;93338.44;5053609;28;20037;-85
2021/11/25 11:09:05;;;;;;;16.25;11.32;;;;;;;8.98;100.00;93334.91;5063223;28;20419;-85
2021/11/25 11:11:34;;;;;;;14.20;9.93;;;;;;;9.00;100.00;93331.16;5070610;28;20483;-85
2021/11/25 11:14:19;;;;;;;18.05;9.77;;;;;;;8.88;100.00;93315.56;5070493;28;20123;-85
2021/11/25 11:16:49;;;;;;;18.35;11.13;;;;;;;9.08;100.00;93313.00;5051866;28;20654;-85
2021/11/25 11:19:17;;;;;;;20.45;12.25;;;;;;;9.11;100.00;93316.97;5055526;28;20037;-84
2021/11/25 11:21:47;;;;;;;22.35;12.80;;;;;;;9.19;100.00;93311.66;5055329;28;20494;-84
2021/11/25 11:24:18;;;;;;;18.77;11.45;;;;;;;9.19;100.00;93309.09;5055546;28;20056;-85
2021/11/25 11:26:48;;;;;;;20.60;13.88;;;;;;;9.06;100.00;93291.94;5055433;28;20049;-85
2021/11/25 11:29:18;;;;;;;17.63;11.90;;;;;;;9.13;100.00;93304.75;5052321;28;20048;-84
2021/11/25 11:31:47;;;;;;;17.10;11.85;;;;;;;9.15;100.00;93302.78;5055182;28;20052;-84
2021/11/25 11:34:15;;;;;;;16.83;11.05;;;;;;;9.17;100.00;93298.22;5055224;28;20055;-84
2021/11/25 11:36:44;;;;;;;16.92;11.85;;;;;;;9.22;100.00;93295.09;5057216;28;20523;-84